| time (UTC) | temp F | wind direction | speed knots | gust knots | rain 1hr in | rain 24hr in | rain mn in | humidity % | barometer mb |
| 20260507114103 | 74 | 26 | 2.6 | 7.0 | 0.00 | 0.00 | 0.00 | 41 | 1009.1 |
| 20260507111105 | 63 | 52 | 0.9 | 0.0 | 0.00 | 0.00 | 0.00 | 51 | 1009.4 |
| 20260507104105 | 63 | 347 | 2.6 | 3.5 | 0.00 | 0.00 | 0.00 | 51 | 1009.5 |
| 20260507101103 | 70 | 331 | 1.7 | 6.1 | 0.00 | 0.00 | 0.00 | 49 | 1009.5 |
| 20260507094103 | 69 | 351 | 4.3 | 5.2 | 0.00 | 0.00 | 0.00 | 50 | 1009.5 |
| 20260507091104 | 67 | 358 | 0.9 | 1.7 | 0.00 | 0.00 | 0.00 | 54 | 1009.4 |
| 20260507084104 | 62 | 220 | 0.0 | 0.0 | 0.00 | 0.00 | 0.00 | 60 | 1009.4 |
| 20260507081103 | 60 | 333 | 0.0 | 0.0 | 0.00 | 0.00 | 0.00 | 65 | 1009.4 |
| 20260507074102 | 56 | 238 | 0.0 | 0.0 | 0.00 | 0.00 | 0.00 | 70 | 1009.3 |
| 20260507071103 | 53 | 187 | 0.0 | 0.0 | 0.00 | 0.00 | 0.00 | 76 | 1009.0 |
| 20260507064103 | 52 | 142 | 0.0 | 0.0 | 0.00 | 0.00 | 0.00 | 79 | 1008.9 |
| 20260507063735 | 51 | 78 | 0.0 | 0.0 | 0.00 | 0.00 | 0.00 | 79 | 1008.8 |
| 20260507060736 | 50 | 53 | 0.0 | 0.0 | 0.00 | 0.00 | 0.00 | 81 | 1008.7 |
| 20260507053737 | 49 | 22 | 0.0 | 0.0 | 0.00 | 0.00 | 0.00 | 82 | 1008.5 |
| 20260507050736 | 49 | 24 | 0.0 | 0.0 | 0.00 | 0.00 | 0.00 | 82 | 1008.3 |
| 20260507043736 | 48 | 7 | 0.0 | 0.0 | 0.00 | 0.00 | 0.00 | 82 | 1008.0 |
| 20260507040737 | 48 | 22 | 0.0 | 0.0 | 0.00 | 0.00 | 0.00 | 81 | 1007.9 |
| 20260507033735 | 48 | 3 | 0.0 | 0.0 | 0.00 | 0.00 | 0.00 | 81 | 1007.9 |
| 20260507030736 | 48 | 332 | 0.0 | 0.0 | 0.00 | 0.00 | 0.00 | 80 | 1008.0 |
| 20260507025708 | 48 | 342 | 0.0 | 0.0 | 0.00 | 0.00 | 0.00 | 80 | 1007.8 |
| 20260507022708 | 48 | 333 | 0.0 | 0.0 | 0.00 | 0.00 | 0.00 | 79 | 1007.9 |
| 20260507015707 | 49 | 321 | 0.0 | 0.0 | 0.00 | 0.00 | 0.00 | 79 | 1007.8 |
| 20260507012708 | 49 | 302 | 0.0 | 0.0 | 0.00 | 0.00 | 0.00 | 78 | 1007.8 |
| 20260507005708 | 49 | 305 | 0.0 | 0.0 | 0.00 | 0.00 | 0.00 | 78 | 1007.7 |
| 20260507002709 | 49 | 354 | 0.0 | 0.0 | 0.00 | 0.00 | 0.00 | 77 | 1007.7 |
| 20260506235709 | 49 | 323 | 0.0 | 0.0 | 0.00 | 0.00 | 0.00 | 76 | 1007.7 |
| 20260506232708 | 49 | 288 | 0.0 | 1.7 | 0.00 | 0.00 | 0.00 | 76 | 1007.6 |
| 20260506225707 | 50 | 318 | 0.0 | 0.0 | 0.00 | 0.00 | 0.00 | 75 | 1007.7 |
| 20260506222707 | 50 | 320 | 0.0 | 0.0 | 0.00 | 0.00 | 0.00 | 74 | 1007.7 |
| 20260506215708 | 50 | 286 | 0.0 | 0.9 | 0.00 | 0.00 | 0.00 | 74 | 1007.4 |
| 20260506212708 | 50 | 6 | 0.9 | 1.7 | 0.00 | 0.00 | 0.00 | 73 | 1007.2 |
| 20260506205707 | 50 | 345 | 0.9 | 4.3 | 0.00 | 0.00 | 0.00 | 72 | 1007.1 |
| 20260506202707 | 51 | 355 | 0.0 | 1.7 | 0.00 | 0.00 | 0.00 | 70 | 1007.0 |
| 20260506195708 | 51 | 340 | 2.6 | 3.5 | 0.00 | 0.00 | 0.00 | 69 | 1006.7 |
| 20260506192707 | 52 | 328 | 0.9 | 3.5 | 0.00 | 0.00 | 0.00 | 67 | 1006.3 |
| 20260506191644 | 52 | 320 | 0.9 | 2.6 | 0.00 | 0.00 | 0.00 | 66 | 1006.3 |
| 20260506184645 | 53 | 319 | 2.6 | 3.5 | 0.00 | 0.00 | 0.00 | 64 | 1006.0 |
| 20260506181645 | 55 | 348 | 7.8 | 11.3 | 0.00 | 0.00 | 0.00 | 61 | 1005.9 |
| 20260506174645 | 55 | 303 | 4.3 | 7.0 | 0.00 | 0.00 | 0.00 | 60 | 1005.5 |
| 20260506171645 | 57 | 338 | 7.8 | 10.4 | 0.00 | 0.00 | 0.00 | 55 | 1005.4 |
| 20260506164644 | 61 | 277 | 2.6 | 1.7 | 0.00 | 0.00 | 0.00 | 50 | 1005.4 |
| 20260506161645 | 60 | 0 | 5.2 | 7.0 | 0.00 | 0.00 | 0.00 | 49 | 1005.4 |
| 20260506154644 | 61 | 352 | 2.6 | 7.0 | 0.00 | 0.00 | 0.00 | 48 | 1005.3 |
| 20260506151643 | 64 | 303 | 4.3 | 7.8 | 0.00 | 0.00 | 0.00 | 44 | 1005.3 |
| 20260506151246 | 64 | 298 | 3.5 | 4.3 | 0.00 | 0.00 | 0.00 | 44 | 1005.4 |
| 20260506134051 | 70 | 335 | 3.5 | 6.1 | 0.00 | 0.00 | 0.00 | 42 | 1005.3 |
| 20260506131052 | 73 | 288 | 8.7 | 9.6 | 0.00 | 0.00 | 0.00 | 39 | 1005.2 |
| 20260506124051 | 68 | 349 | 9.6 | 13.9 | 0.00 | 0.00 | 0.00 | 43 | 1005.1 |
| 20260506121052 | 70 | 346 | 10.4 | 11.3 | 0.00 | 0.00 | 0.00 | 41 | 1005.0 |